sensor_id;sensor_type;location;lat;lon;timestamp;pressure;altitude;pressure_sealevel;temperature;humidity
76496;BME280;65329;52.544;4.662;2023-09-19T00:00:23;-18597.69;;;-139.74;0.00
76496;BME280;65329;52.544;4.662;2023-09-19T00:02:55;-18597.69;;;-139.74;0.00
76496;BME280;65329;52.544;4.662;2023-09-19T00:05:27;-18597.69;;;-139.74;0.00
76496;BME280;65329;52.544;4.662;2023-09-19T00:07:57;-18597.69;;;-139.74;0.00
76496;BME280;65329;52.544;4.662;2023-09-19T00:10:27;-18597.69;;;-139.74;0.00
76496;BME280;65329;52.544;4.662;2023-09-19T00:12:58;-18597.69;;;-139.74;0.00
76496;BME280;65329;52.544;4.662;2023-09-19T00:15:37;-18597.69;;;-139.74;0.00
76496;BME280;65329;52.544;4.662;2023-09-19T00:18:05;-18597.69;;;-139.74;0.00
76496;BME280;65329;52.544;4.662;2023-09-19T00:20:35;-18597.69;;;-139.74;0.00
76496;BME280;65329;52.544;4.662;2023-09-19T00:23:03;-18597.69;;;-139.74;0.00
76496;BME280;65329;52.544;4.662;2023-09-19T00:25:31;-18597.69;;;-139.74;0.00
76496;BME280;65329;52.544;4.662;2023-09-19T00:28:04;-18597.69;;;-139.74;0.00
76496;BME280;65329;52.544;4.662;2023-09-19T00:30:34;-18597.69;;;-139.74;0.00
76496;BME280;65329;52.544;4.662;2023-09-19T00:33:01;-18597.69;;;-139.74;0.00
76496;BME280;65329;52.544;4.662;2023-09-19T00:35:33;-18597.69;;;-139.74;0.00
76496;BME280;65329;52.544;4.662;2023-09-19T00:38:00;-18597.69;;;-139.74;0.00
76496;BME280;65329;52.544;4.662;2023-09-19T00:40:27;-18597.69;;;-139.74;0.00
76496;BME280;65329;52.544;4.662;2023-09-19T00:42:57;-18597.69;;;-139.74;0.00
76496;BME280;65329;52.544;4.662;2023-09-19T00:45:26;-18597.69;;;-139.74;0.00
76496;BME280;65329;52.544;4.662;2023-09-19T00:47:55;-18597.69;;;-139.74;0.00
76496;BME280;65329;52.544;4.662;2023-09-19T00:50:24;-18597.69;;;-139.74;0.00
76496;BME280;65329;52.544;4.662;2023-09-19T00:52:54;-18597.69;;;-139.74;0.00
76496;BME280;65329;52.544;4.662;2023-09-19T00:55:24;-18597.69;;;-139.74;0.00
76496;BME280;65329;52.544;4.662;2023-09-19T00:57:52;-18597.69;;;-139.74;0.00
76496;BME280;65329;52.544;4.662;2023-09-19T01:00:19;-18597.69;;;-139.74;0.00
76496;BME280;65329;52.544;4.662;2023-09-19T01:02:47;-18597.69;;;-139.74;0.00
76496;BME280;65329;52.544;4.662;2023-09-19T01:05:15;-18597.69;;;-139.74;0.00
76496;BME280;65329;52.544;4.662;2023-09-19T01:07:43;-18597.69;;;-139.74;0.00
76496;BME280;65329;52.544;4.662;2023-09-19T01:10:17;-18597.69;;;-139.74;0.00
76496;BME280;65329;52.544;4.662;2023-09-19T01:15:55;-18597.69;;;-139.74;0.00
76496;BME280;65329;52.544;4.662;2023-09-19T01:19:07;-18597.69;;;-139.74;0.00
76496;BME280;65329;52.544;4.662;2023-09-19T01:24:32;-18597.69;;;-139.74;0.00
76496;BME280;65329;52.544;4.662;2023-09-19T01:27:31;-18597.69;;;-139.74;0.00
76496;BME280;65329;52.544;4.662;2023-09-19T01:30:14;-18597.69;;;-139.74;0.00
76496;BME280;65329;52.544;4.662;2023-09-19T01:32:41;-18597.69;;;-139.74;0.00
76496;BME280;65329;52.544;4.662;2023-09-19T01:35:10;-18597.69;;;-139.74;0.00
76496;BME280;65329;52.544;4.662;2023-09-19T01:37:40;-18597.69;;;-139.74;0.00
76496;BME280;65329;52.544;4.662;2023-09-19T01:40:11;-18597.69;;;-139.74;0.00
76496;BME280;65329;52.544;4.662;2023-09-19T01:43:05;-18597.69;;;-139.74;0.00
76496;BME280;65329;52.544;4.662;2023-09-19T01:48:41;-18597.69;;;-139.74;0.00
76496;BME280;65329;52.544;4.662;2023-09-19T01:51:18;-18597.69;;;-139.74;0.00
76496;BME280;65329;52.544;4.662;2023-09-19T01:53:55;-18597.69;;;-139.74;0.00
76496;BME280;65329;52.544;4.662;2023-09-19T01:56:30;-18597.69;;;-139.74;0.00
76496;BME280;65329;52.544;4.662;2023-09-19T01:59:04;-18597.69;;;-139.74;0.00
76496;BME280;65329;52.544;4.662;2023-09-19T02:01:33;-18597.69;;;-139.74;0.00
76496;BME280;65329;52.544;4.662;2023-09-19T02:04:01;-18597.69;;;-139.74;0.00
76496;BME280;65329;52.544;4.662;2023-09-19T02:06:31;-18597.69;;;-139.74;0.00
76496;BME280;65329;52.544;4.662;2023-09-19T02:08:58;-18597.69;;;-139.74;0.00
76496;BME280;65329;52.544;4.662;2023-09-19T02:11:26;-18597.69;;;-139.74;0.00
76496;BME280;65329;52.544;4.662;2023-09-19T02:13:53;-18597.69;;;-139.74;0.00
76496;BME280;65329;52.544;4.662;2023-09-19T02:16:21;-18597.69;;;-139.74;0.00
76496;BME280;65329;52.544;4.662;2023-09-19T02:18:49;-18597.69;;;-139.74;0.00
76496;BME280;65329;52.544;4.662;2023-09-19T02:21:17;-18597.69;;;-139.74;0.00
76496;BME280;65329;52.544;4.662;2023-09-19T02:23:44;-18597.69;;;-139.74;0.00
76496;BME280;65329;52.544;4.662;2023-09-19T02:26:12;-18597.69;;;-139.74;0.00
76496;BME280;65329;52.544;4.662;2023-09-19T02:28:40;-18597.69;;;-139.74;0.00
76496;BME280;65329;52.544;4.662;2023-09-19T02:31:08;-18597.69;;;-139.74;0.00
76496;BME280;65329;52.544;4.662;2023-09-19T02:33:35;-18597.69;;;-139.74;0.00
76496;BME280;65329;52.544;4.662;2023-09-19T02:36:02;-18597.69;;;-139.74;0.00
76496;BME280;65329;52.544;4.662;2023-09-19T02:38:32;-18597.69;;;-139.74;0.00
76496;BME280;65329;52.544;4.662;2023-09-19T02:40:59;-18597.69;;;-139.74;0.00
76496;BME280;65329;52.544;4.662;2023-09-19T02:43:25;-18597.69;;;-139.74;0.00
76496;BME280;65329;52.544;4.662;2023-09-19T02:45:52;-18597.69;;;-139.74;0.00
76496;BME280;65329;52.544;4.662;2023-09-19T02:48:23;-18597.69;;;-139.74;0.00
76496;BME280;65329;52.544;4.662;2023-09-19T02:50:52;-18597.69;;;-139.74;0.00
76496;BME280;65329;52.544;4.662;2023-09-19T02:53:19;-18597.69;;;-139.74;0.00
76496;BME280;65329;52.544;4.662;2023-09-19T02:55:49;-18597.69;;;-139.74;0.00
76496;BME280;65329;52.544;4.662;2023-09-19T02:58:16;-18597.69;;;-139.74;0.00
76496;BME280;65329;52.544;4.662;2023-09-19T03:00:46;-18597.69;;;-139.74;0.00
76496;BME280;65329;52.544;4.662;2023-09-19T03:03:18;-18597.69;;;-139.74;0.00
76496;BME280;65329;52.544;4.662;2023-09-19T03:05:45;-18597.69;;;-139.74;0.00
76496;BME280;65329;52.544;4.662;2023-09-19T03:08:16;-18597.69;;;-139.74;0.00
76496;BME280;65329;52.544;4.662;2023-09-19T03:10:46;-18597.69;;;-139.74;0.00
76496;BME280;65329;52.544;4.662;2023-09-19T03:13:15;-18597.69;;;-139.74;0.00
76496;BME280;65329;52.544;4.662;2023-09-19T03:15:42;-18597.69;;;-139.74;0.00
76496;BME280;65329;52.544;4.662;2023-09-19T03:18:21;-18597.69;;;-139.74;0.00
76496;BME280;65329;52.544;4.662;2023-09-19T03:20:54;-18597.69;;;-139.74;0.00
76496;BME280;65329;52.544;4.662;2023-09-19T03:23:23;-18597.69;;;-139.74;0.00
76496;BME280;65329;52.544;4.662;2023-09-19T03:25:49;-18597.69;;;-139.74;0.00
76496;BME280;65329;52.544;4.662;2023-09-19T03:28:17;-18597.69;;;-139.74;0.00
76496;BME280;65329;52.544;4.662;2023-09-19T03:30:44;-18597.69;;;-139.74;0.00
76496;BME280;65329;52.544;4.662;2023-09-19T03:33:12;-18597.69;;;-139.74;0.00
76496;BME280;65329;52.544;4.662;2023-09-19T03:35:40;-18597.69;;;-139.74;0.00
76496;BME280;65329;52.544;4.662;2023-09-19T03:38:07;-18597.69;;;-139.74;0.00
76496;BME280;65329;52.544;4.662;2023-09-19T03:40:34;-18597.69;;;-139.74;0.00
76496;BME280;65329;52.544;4.662;2023-09-19T03:43:04;-18597.69;;;-139.74;0.00
76496;BME280;65329;52.544;4.662;2023-09-19T03:45:31;-18597.69;;;-139.74;0.00
76496;BME280;65329;52.544;4.662;2023-09-19T03:47:58;-18597.69;;;-139.74;0.00
76496;BME280;65329;52.544;4.662;2023-09-19T03:50:25;-18597.69;;;-139.74;0.00
76496;BME280;65329;52.544;4.662;2023-09-19T03:52:56;-18597.69;;;-139.74;0.00
76496;BME280;65329;52.544;4.662;2023-09-19T03:55:23;-18597.69;;;-139.74;0.00
76496;BME280;65329;52.544;4.662;2023-09-19T03:57:51;-18597.69;;;-139.74;0.00
76496;BME280;65329;52.544;4.662;2023-09-19T04:00:19;-18597.69;;;-139.74;0.00
76496;BME280;65329;52.544;4.662;2023-09-19T04:02:48;-18597.69;;;-139.74;0.00
76496;BME280;65329;52.544;4.662;2023-09-19T04:05:16;-18597.69;;;-139.74;0.00
76496;BME280;65329;52.544;4.662;2023-09-19T04:07:43;-18597.69;;;-139.74;0.00
76496;BME280;65329;52.544;4.662;2023-09-19T04:10:10;-18597.69;;;-139.74;0.00
76496;BME280;65329;52.544;4.662;2023-09-19T04:12:40;-18597.69;;;-139.74;0.00
76496;BME280;65329;52.544;4.662;2023-09-19T04:15:08;-18597.69;;;-139.74;0.00
76496;BME280;65329;52.544;4.662;2023-09-19T04:17:35;-18597.69;;;-139.74;0.00
76496;BME280;65329;52.544;4.662;2023-09-19T04:20:03;-18597.69;;;-139.74;0.00
76496;BME280;65329;52.544;4.662;2023-09-19T04:22:34;-18597.69;;;-139.74;0.00
76496;BME280;65329;52.544;4.662;2023-09-19T04:25:01;-18597.69;;;-139.74;0.00
76496;BME280;65329;52.544;4.662;2023-09-19T04:27:29;-18597.69;;;-139.74;0.00
76496;BME280;65329;52.544;4.662;2023-09-19T04:29:57;-18597.69;;;-139.74;0.00
76496;BME280;65329;52.544;4.662;2023-09-19T04:32:29;-18597.69;;;-139.74;0.00
76496;BME280;65329;52.544;4.662;2023-09-19T04:34:56;-18597.69;;;-139.74;0.00
76496;BME280;65329;52.544;4.662;2023-09-19T04:37:26;-18597.69;;;-139.74;0.00
76496;BME280;65329;52.544;4.662;2023-09-19T04:39:53;-18597.69;;;-139.74;0.00
76496;BME280;65329;52.544;4.662;2023-09-19T04:42:21;-18597.69;;;-139.74;0.00
76496;BME280;65329;52.544;4.662;2023-09-19T04:44:48;-18597.69;;;-139.74;0.00
76496;BME280;65329;52.544;4.662;2023-09-19T04:47:16;-18597.69;;;-139.74;0.00
76496;BME280;65329;52.544;4.662;2023-09-19T04:49:43;-18597.69;;;-139.74;0.00
76496;BME280;65329;52.544;4.662;2023-09-19T04:52:10;-18597.69;;;-139.74;0.00
76496;BME280;65329;52.544;4.662;2023-09-19T04:54:37;-18597.69;;;-139.74;0.00
76496;BME280;65329;52.544;4.662;2023-09-19T04:57:04;-18597.69;;;-139.74;0.00
76496;BME280;65329;52.544;4.662;2023-09-19T04:59:32;-18597.69;;;-139.74;0.00
76496;BME280;65329;52.544;4.662;2023-09-19T05:01:59;-18597.69;;;-139.74;0.00
76496;BME280;65329;52.544;4.662;2023-09-19T05:04:26;-18597.69;;;-139.74;0.00
76496;BME280;65329;52.544;4.662;2023-09-19T05:06:54;-18597.69;;;-139.74;0.00
76496;BME280;65329;52.544;4.662;2023-09-19T05:09:21;-18597.69;;;-139.74;0.00
76496;BME280;65329;52.544;4.662;2023-09-19T05:11:48;-18597.69;;;-139.74;0.00
76496;BME280;65329;52.544;4.662;2023-09-19T05:14:15;-18597.69;;;-139.74;0.00
76496;BME280;65329;52.544;4.662;2023-09-19T05:16:42;-18597.69;;;-139.74;0.00
76496;BME280;65329;52.544;4.662;2023-09-19T05:19:09;-18597.69;;;-139.74;0.00
76496;BME280;65329;52.544;4.662;2023-09-19T05:21:38;-18597.69;;;-139.74;0.00
76496;BME280;65329;52.544;4.662;2023-09-19T05:24:08;-18597.69;;;-139.74;0.00
76496;BME280;65329;52.544;4.662;2023-09-19T05:26:36;-18597.69;;;-139.74;0.00
76496;BME280;65329;52.544;4.662;2023-09-19T05:29:03;-18597.69;;;-139.74;0.00
76496;BME280;65329;52.544;4.662;2023-09-19T05:31:31;-18597.69;;;-139.74;0.00
76496;BME280;65329;52.544;4.662;2023-09-19T05:33:58;-18597.69;;;-139.74;0.00
76496;BME280;65329;52.544;4.662;2023-09-19T05:36:27;-18597.69;;;-139.74;0.00
76496;BME280;65329;52.544;4.662;2023-09-19T05:38:56;-18597.69;;;-139.74;0.00
76496;BME280;65329;52.544;4.662;2023-09-19T05:41:23;-18597.69;;;-139.74;0.00
76496;BME280;65329;52.544;4.662;2023-09-19T05:43:50;-18597.69;;;-139.74;0.00
76496;BME280;65329;52.544;4.662;2023-09-19T05:46:17;-18597.69;;;-139.74;0.00
76496;BME280;65329;52.544;4.662;2023-09-19T05:48:44;-18597.69;;;-139.74;0.00
76496;BME280;65329;52.544;4.662;2023-09-19T05:51:11;-18597.69;;;-139.74;0.00
76496;BME280;65329;52.544;4.662;2023-09-19T05:53:38;-18597.69;;;-139.74;0.00
76496;BME280;65329;52.544;4.662;2023-09-19T05:56:05;-18597.69;;;-139.74;0.00
76496;BME280;65329;52.544;4.662;2023-09-19T05:58:32;-18597.69;;;-139.74;0.00
76496;BME280;65329;52.544;4.662;2023-09-19T06:01:00;-18597.69;;;-139.74;0.00
76496;BME280;65329;52.544;4.662;2023-09-19T06:03:26;-18597.69;;;-139.74;0.00
76496;BME280;65329;52.544;4.662;2023-09-19T06:05:53;-18597.69;;;-139.74;0.00
76496;BME280;65329;52.544;4.662;2023-09-19T06:08:24;-18597.69;;;-139.74;0.00
76496;BME280;65329;52.544;4.662;2023-09-19T06:10:52;-18597.69;;;-139.74;0.00
76496;BME280;65329;52.544;4.662;2023-09-19T06:13:19;-18597.69;;;-139.74;0.00
76496;BME280;65329;52.544;4.662;2023-09-19T06:15:46;-18597.69;;;-139.74;0.00
76496;BME280;65329;52.544;4.662;2023-09-19T06:18:13;-18597.69;;;-139.74;0.00
76496;BME280;65329;52.544;4.662;2023-09-19T06:20:43;-18597.69;;;-139.74;0.00
76496;BME280;65329;52.544;4.662;2023-09-19T06:23:11;-18597.69;;;-139.74;0.00
76496;BME280;65329;52.544;4.662;2023-09-19T06:25:38;-18597.69;;;-139.74;0.00
76496;BME280;65329;52.544;4.662;2023-09-19T06:28:06;-18597.69;;;-139.74;0.00
76496;BME280;65329;52.544;4.662;2023-09-19T06:30:34;-18597.69;;;-139.74;0.00
76496;BME280;65329;52.544;4.662;2023-09-19T06:33:02;-18597.69;;;-139.74;0.00
76496;BME280;65329;52.544;4.662;2023-09-19T06:35:32;-18597.69;;;-139.74;0.00
76496;BME280;65329;52.544;4.662;2023-09-19T06:38:03;-18597.69;;;-139.74;0.00
76496;BME280;65329;52.544;4.662;2023-09-19T06:40:30;-18597.69;;;-139.74;0.00
76496;BME280;65329;52.544;4.662;2023-09-19T06:42:58;-18597.69;;;-139.74;0.00
76496;BME280;65329;52.544;4.662;2023-09-19T06:45:24;-18597.69;;;-139.74;0.00
76496;BME280;65329;52.544;4.662;2023-09-19T06:47:54;-18597.69;;;-139.74;0.00
76496;BME280;65329;52.544;4.662;2023-09-19T06:50:26;-18597.69;;;-139.74;0.00
76496;BME280;65329;52.544;4.662;2023-09-19T06:52:55;-18597.69;;;-139.74;0.00
76496;BME280;65329;52.544;4.662;2023-09-19T06:55:25;-18597.69;;;-139.74;0.00
76496;BME280;65329;52.544;4.662;2023-09-19T06:57:55;-18597.69;;;-139.74;0.00
76496;BME280;65329;52.544;4.662;2023-09-19T07:00:22;-18597.69;;;-139.74;0.00
76496;BME280;65329;52.544;4.662;2023-09-19T07:03:06;-18597.69;;;-139.74;0.00
76496;BME280;65329;52.544;4.662;2023-09-19T07:05:40;-18597.69;;;-139.74;0.00
76496;BME280;65329;52.544;4.662;2023-09-19T07:08:08;-18597.69;;;-139.74;0.00
76496;BME280;65329;52.544;4.662;2023-09-19T07:10:37;-18597.69;;;-139.74;0.00
76496;BME280;65329;52.544;4.662;2023-09-19T07:13:07;-18597.69;;;-139.74;0.00
76496;BME280;65329;52.544;4.662;2023-09-19T07:15:38;-18597.69;;;-139.74;0.00
76496;BME280;65329;52.544;4.662;2023-09-19T07:18:09;-18597.69;;;-139.74;0.00
76496;BME280;65329;52.544;4.662;2023-09-19T07:20:38;-18597.69;;;-139.74;0.00
76496;BME280;65329;52.544;4.662;2023-09-19T07:23:05;-18597.69;;;-139.74;0.00
76496;BME280;65329;52.544;4.662;2023-09-19T07:25:33;-18597.69;;;-139.74;0.00
76496;BME280;65329;52.544;4.662;2023-09-19T07:28:02;-18597.69;;;-139.74;0.00
76496;BME280;65329;52.544;4.662;2023-09-19T07:30:29;-18597.69;;;-139.74;0.00
76496;BME280;65329;52.544;4.662;2023-09-19T07:32:56;-18597.69;;;-139.74;0.00
76496;BME280;65329;52.544;4.662;2023-09-19T07:35:23;-18597.69;;;-139.74;0.00
76496;BME280;65329;52.544;4.662;2023-09-19T07:37:50;-18597.69;;;-139.74;0.00
76496;BME280;65329;52.544;4.662;2023-09-19T07:40:19;-18597.69;;;-139.74;0.00
76496;BME280;65329;52.544;4.662;2023-09-19T07:42:50;-18597.69;;;-139.74;0.00
76496;BME280;65329;52.544;4.662;2023-09-19T07:45:18;-18597.69;;;-139.74;0.00
76496;BME280;65329;52.544;4.662;2023-09-19T07:47:46;-18597.69;;;-139.74;0.00
76496;BME280;65329;52.544;4.662;2023-09-19T07:50:14;-18597.69;;;-139.74;0.00
76496;BME280;65329;52.544;4.662;2023-09-19T07:52:42;-18597.69;;;-139.74;0.00
76496;BME280;65329;52.544;4.662;2023-09-19T07:55:10;-18597.69;;;-139.74;0.00
76496;BME280;65329;52.544;4.662;2023-09-19T07:57:43;-18597.69;;;-139.74;0.00
76496;BME280;65329;52.544;4.662;2023-09-19T08:00:11;-18597.69;;;-139.74;0.00
76496;BME280;65329;52.544;4.662;2023-09-19T08:02:43;-18071.97;;;-139.74;0.00
76496;BME280;65329;52.544;4.662;2023-09-19T08:05:12;-17285.59;;;-139.74;0.00
76496;BME280;65329;52.544;4.662;2023-09-19T08:07:46;-18597.69;;;-139.74;0.00
76496;BME280;65329;52.544;4.662;2023-09-19T08:10:16;-18597.69;;;-139.74;0.00
76496;BME280;65329;52.544;4.662;2023-09-19T08:12:46;-18597.69;;;-139.74;0.00
76496;BME280;65329;52.544;4.662;2023-09-19T08:15:19;-18597.69;;;-139.74;0.00
76496;BME280;65329;52.544;4.662;2023-09-19T08:17:47;-18597.69;;;-139.74;0.00
76496;BME280;65329;52.544;4.662;2023-09-19T08:20:15;-18597.69;;;-139.74;0.00
76496;BME280;65329;52.544;4.662;2023-09-19T08:22:49;-18597.69;;;-139.74;0.00
76496;BME280;65329;52.544;4.662;2023-09-19T08:25:19;-18597.69;;;-139.74;0.00
76496;BME280;65329;52.544;4.662;2023-09-19T08:27:48;-18597.69;;;-139.74;0.00
76496;BME280;65329;52.544;4.662;2023-09-19T08:30:20;-18597.69;;;-139.74;0.00
76496;BME280;65329;52.544;4.662;2023-09-19T08:32:57;-18597.69;;;-139.74;0.00
76496;BME280;65329;52.544;4.662;2023-09-19T08:35:25;-18071.97;;;-139.74;0.00
76496;BME280;65329;52.544;4.662;2023-09-19T08:37:52;-18597.69;;;-139.74;0.00
76496;BME280;65329;52.544;4.662;2023-09-19T08:40:19;-18596.16;;;-139.74;0.00
76496;BME280;65329;52.544;4.662;2023-09-19T08:42:53;-12826.28;;;-139.74;0.00
76496;BME280;65329;52.544;4.662;2023-09-19T08:45:22;-16761.22;;;-139.74;0.00
76496;BME280;65329;52.544;4.662;2023-09-19T08:48:19;-18597.69;;;-139.74;0.00
76496;BME280;65329;52.544;4.662;2023-09-19T08:50:51;-17023.41;;;-139.74;0.00
76496;BME280;65329;52.544;4.662;2023-09-19T08:53:41;-17547.72;;;-139.74;0.00
76496;BME280;65329;52.544;4.662;2023-09-19T08:56:13;-18334.06;;;-139.74;0.00
76496;BME280;65329;52.544;4.662;2023-09-19T08:59:07;-14663.09;;;-139.74;0.00
76496;BME280;65329;52.544;4.662;2023-09-19T09:01:35;-13876.00;;;-139.74;0.00
76496;BME280;65329;52.544;4.662;2023-09-19T09:04:02;-16761.22;;;-139.74;0.00
76496;BME280;65329;52.544;4.662;2023-09-19T09:06:29;-18596.16;;;-139.74;0.00
76496;BME280;65329;52.544;4.662;2023-09-19T09:09:00;-18071.97;;;-139.74;0.00
76496;BME280;65329;52.544;4.662;2023-09-19T09:11:27;-18597.69;;;-139.74;0.00
76496;BME280;65329;52.544;4.662;2023-09-19T09:13:54;-18597.69;;;-139.74;0.00
76496;BME280;65329;52.544;4.662;2023-09-19T09:16:22;-18597.69;;;-139.74;0.00
76496;BME280;65329;52.544;4.662;2023-09-19T09:18:53;-18597.69;;;-139.74;0.00
76496;BME280;65329;52.544;4.662;2023-09-19T09:21:22;-18597.69;;;-139.74;0.00
76496;BME280;65329;52.544;4.662;2023-09-19T09:23:51;-18597.69;;;-139.74;0.00
76496;BME280;65329;52.544;4.662;2023-09-19T09:29:05;-18597.69;;;-139.74;0.00
76496;BME280;65329;52.544;4.662;2023-09-19T09:31:32;-18597.69;;;-139.74;0.00
76496;BME280;65329;52.544;4.662;2023-09-19T09:33:59;-18597.69;;;-139.74;0.00
76496;BME280;65329;52.544;4.662;2023-09-19T09:36:39;-18597.69;;;-139.74;0.00
76496;BME280;65329;52.544;4.662;2023-09-19T09:39:10;-18597.69;;;-139.74;0.00
76496;BME280;65329;52.544;4.662;2023-09-19T09:41:45;-18597.69;;;-139.74;0.00
76496;BME280;65329;52.544;4.662;2023-09-19T09:44:18;-18597.69;;;-139.74;0.00
76496;BME280;65329;52.544;4.662;2023-09-19T09:46:47;-18597.69;;;-139.74;0.00
76496;BME280;65329;52.544;4.662;2023-09-19T09:49:25;-18597.69;;;-139.74;0.00
76496;BME280;65329;52.544;4.662;2023-09-19T09:52:03;-18597.69;;;-139.74;0.00
76496;BME280;65329;52.544;4.662;2023-09-19T09:54:58;-18597.69;;;-139.74;0.00
76496;BME280;65329;52.544;4.662;2023-09-19T09:57:25;-18597.69;;;-139.74;0.00
76496;BME280;65329;52.544;4.662;2023-09-19T09:59:55;-18597.69;;;-139.74;0.00
76496;BME280;65329;52.544;4.662;2023-09-19T10:02:29;-18597.69;;;-139.74;0.00
76496;BME280;65329;52.544;4.662;2023-09-19T10:04:57;-18597.69;;;-139.74;0.00
76496;BME280;65329;52.544;4.662;2023-09-19T10:07:42;-18597.69;;;-139.74;0.00
76496;BME280;65329;52.544;4.662;2023-09-19T10:10:38;-18597.69;;;-139.74;0.00
76496;BME280;65329;52.544;4.662;2023-09-19T10:13:10;-18597.69;;;-139.74;0.00
76496;BME280;65329;52.544;4.662;2023-09-19T10:15:43;-18597.69;;;-139.74;0.00
76496;BME280;65329;52.544;4.662;2023-09-19T10:18:25;-18597.69;;;-139.74;0.00
76496;BME280;65329;52.544;4.662;2023-09-19T10:20:53;-18597.69;;;-139.74;0.00
76496;BME280;65329;52.544;4.662;2023-09-19T10:23:22;-18597.69;;;-139.74;0.00
76496;BME280;65329;52.544;4.662;2023-09-19T10:25:51;-18597.69;;;-139.74;0.00
76496;BME280;65329;52.544;4.662;2023-09-19T10:28:20;-18597.69;;;-139.74;0.00
76496;BME280;65329;52.544;4.662;2023-09-19T10:30:51;-18597.69;;;-139.74;0.00
76496;BME280;65329;52.544;4.662;2023-09-19T10:33:21;-18597.69;;;-139.74;0.00
76496;BME280;65329;52.544;4.662;2023-09-19T10:35:50;-18597.69;;;-139.74;0.00
76496;BME280;65329;52.544;4.662;2023-09-19T10:38:26;-18597.69;;;-139.74;0.00
76496;BME280;65329;52.544;4.662;2023-09-19T10:40:58;-18597.69;;;-139.74;0.00
76496;BME280;65329;52.544;4.662;2023-09-19T10:43:32;-18597.69;;;-139.74;1.62
76496;BME280;65329;52.544;4.662;2023-09-19T10:46:11;-18597.69;;;-139.74;20.48
76496;BME280;65329;52.544;4.662;2023-09-19T10:48:40;-18597.69;;;-139.74;34.72
76496;BME280;65329;52.544;4.662;2023-09-19T10:51:20;-18597.69;;;-139.74;40.30
76496;BME280;65329;52.544;4.662;2023-09-19T10:53:56;-18597.69;;;-139.74;41.67
76496;BME280;65329;52.544;4.662;2023-09-19T10:56:27;-18597.69;;;-139.74;42.49
76496;BME280;65329;52.544;4.662;2023-09-19T10:59:10;-18597.69;;;-139.74;36.84
76496;BME280;65329;52.544;4.662;2023-09-19T11:01:49;-18597.69;;;-139.74;22.76
76496;BME280;65329;52.544;4.662;2023-09-19T11:09:51;-18597.69;;;-139.74;47.03
76496;BME280;65329;52.544;4.662;2023-09-19T11:15:10;-18597.69;;;-139.74;36.11
76496;BME280;65329;52.544;4.662;2023-09-19T11:17:40;-18597.69;;;-139.74;29.99
76496;BME280;65329;52.544;4.662;2023-09-19T11:20:19;-18597.69;;;-139.74;23.59
76496;BME280;65329;52.544;4.662;2023-09-19T11:30:47;-18597.69;;;-139.74;0.00
76496;BME280;65329;52.544;4.662;2023-09-19T11:33:32;-18597.69;;;-139.74;13.76
76496;BME280;65329;52.544;4.662;2023-09-19T11:36:17;-18597.69;;;-139.74;35.64
76496;BME280;65329;52.544;4.662;2023-09-19T11:46:27;-18597.69;;;-139.74;41.16
76496;BME280;65329;52.544;4.662;2023-09-19T11:49:07;-18597.69;;;-139.74;45.63
76496;BME280;65329;52.544;4.662;2023-09-19T11:51:43;-18597.69;;;-139.74;45.95
76496;BME280;65329;52.544;4.662;2023-09-19T11:54:11;-18597.69;;;-139.74;47.50
76496;BME280;65329;52.544;4.662;2023-09-19T11:56:48;-18597.69;;;-139.74;49.15
76496;BME280;65329;52.544;4.662;2023-09-19T11:59:21;-18597.69;;;-139.74;48.70
76496;BME280;65329;52.544;4.662;2023-09-19T12:01:55;-18597.69;;;-139.74;48.47
76496;BME280;65329;52.544;4.662;2023-09-19T12:04:39;-18597.69;;;-139.74;47.61
76496;BME280;65329;52.544;4.662;2023-09-19T12:07:09;-18597.69;;;-139.74;43.79
76496;BME280;65329;52.544;4.662;2023-09-19T12:09:48;-18597.69;;;-139.74;41.89
76496;BME280;65329;52.544;4.662;2023-09-19T12:12:23;-18597.69;;;-139.74;43.83
76496;BME280;65329;52.544;4.662;2023-09-19T12:14:55;-18597.69;;;-139.74;47.92
76496;BME280;65329;52.544;4.662;2023-09-19T12:17:36;-18597.69;;;-139.74;46.93
76496;BME280;65329;52.544;4.662;2023-09-19T12:20:04;-18597.69;;;-139.74;45.16
76496;BME280;65329;52.544;4.662;2023-09-19T12:22:43;-18597.69;;;-139.74;28.58
76496;BME280;65329;52.544;4.662;2023-09-19T12:25:11;-18597.69;;;-139.74;19.44
76496;BME280;65329;52.544;4.662;2023-09-19T12:27:42;-18597.69;;;-139.74;11.41
76496;BME280;65329;52.544;4.662;2023-09-19T12:30:11;-18597.69;;;-139.74;22.58
76496;BME280;65329;52.544;4.662;2023-09-19T12:32:53;-18597.69;;;-139.74;15.51
76496;BME280;65329;52.544;4.662;2023-09-19T12:35:28;-18597.69;;;-139.74;13.02
76496;BME280;65329;52.544;4.662;2023-09-19T12:38:02;-18597.69;;;-139.74;8.08
76496;BME280;65329;52.544;4.662;2023-09-19T12:40:31;-18597.69;;;-139.74;0.00
76496;BME280;65329;52.544;4.662;2023-09-19T12:43:01;-18597.69;;;-139.74;0.00
76496;BME280;65329;52.544;4.662;2023-09-19T12:45:31;-18597.69;;;-139.74;0.00
76496;BME280;65329;52.544;4.662;2023-09-19T12:48:18;-18597.69;;;-139.74;0.00
76496;BME280;65329;52.544;4.662;2023-09-19T12:51:04;-18597.69;;;-139.74;0.00
76496;BME280;65329;52.544;4.662;2023-09-19T12:53:43;-18597.69;;;-139.74;0.00
76496;BME280;65329;52.544;4.662;2023-09-19T12:56:17;-18597.69;;;-139.74;0.00
76496;BME280;65329;52.544;4.662;2023-09-19T12:58:53;-18597.69;;;-139.74;0.00
76496;BME280;65329;52.544;4.662;2023-09-19T13:01:24;-18597.69;;;-139.74;0.00
76496;BME280;65329;52.544;4.662;2023-09-19T13:04:14;-18597.69;;;-139.74;0.00
76496;BME280;65329;52.544;4.662;2023-09-19T13:07:07;-18597.69;;;-139.74;0.00
76496;BME280;65329;52.544;4.662;2023-09-19T13:10:04;-18597.69;;;-139.74;0.00
76496;BME280;65329;52.544;4.662;2023-09-19T13:12:35;-18597.69;;;-139.74;0.00
76496;BME280;65329;52.544;4.662;2023-09-19T13:15:08;-18597.69;;;-139.74;0.00
76496;BME280;65329;52.544;4.662;2023-09-19T13:17:43;-18597.69;;;-139.74;0.00
76496;BME280;65329;52.544;4.662;2023-09-19T13:20:26;-18597.69;;;-139.74;0.00
76496;BME280;65329;52.544;4.662;2023-09-19T13:22:59;-18597.69;;;-139.74;0.00
76496;BME280;65329;52.544;4.662;2023-09-19T13:25:38;-18597.69;;;-139.74;0.00
76496;BME280;65329;52.544;4.662;2023-09-19T13:28:07;-18597.69;;;-139.74;0.00
76496;BME280;65329;52.544;4.662;2023-09-19T13:30:37;-18597.69;;;-139.74;0.00
76496;BME280;65329;52.544;4.662;2023-09-19T13:33:13;-18597.69;;;-139.74;0.00